Terminal Aerodrome Forecast
Issued by NWS

Home | Current Version | Previous Version | Text Only | Print | Product List | Glossary On
Versions: 1 2 3 4 5 6 7 8 9 10 11 12
000
FTUS45 KGGW 191100
TAFSDY
TAF
KSDY 191133Z 1912/2012 28016KT P6SM SCT025 BKN060
     FM191500 32020G30KT P6SM BKN025
     FM192000 33020G30KT P6SM BKN050
     FM200000 34019G28KT P6SM SCT130
     FM200600 32007KT P6SM SCT110
      AMD LTD TO CLD VIS AND WIND=

USA.gov is the U.S. government's official web portal to all federal, state and local government web resources and services.